sensor_id;sensor_type;location;lat;lon;timestamp;pressure;altitude;pressure_sealevel;temperature;humidity
58385;BME280;44185;47.844;8.966;2023-02-20T00:00:58;97322.50;;;5.98;95.25
58385;BME280;44185;47.844;8.966;2023-02-20T00:03:23;97311.31;;;5.94;95.32
58385;BME280;44185;47.844;8.966;2023-02-20T00:05:49;97308.75;;;5.93;95.94
58385;BME280;44185;47.844;8.966;2023-02-20T00:08:14;97315.63;;;5.95;95.95
58385;BME280;44185;47.844;8.966;2023-02-20T00:10:40;97329.00;;;5.90;95.83
58385;BME280;44185;47.844;8.966;2023-02-20T00:13:05;97315.25;;;5.85;96.30
58385;BME280;44185;47.844;8.966;2023-02-20T00:15:32;97318.72;;;5.86;96.02
58385;BME280;44185;47.844;8.966;2023-02-20T00:17:57;97325.88;;;5.82;96.49
58385;BME280;44185;47.844;8.966;2023-02-20T00:20:24;97323.22;;;5.84;97.29
58385;BME280;44185;47.844;8.966;2023-02-20T00:22:51;97325.97;;;5.81;98.13
58385;BME280;44185;47.844;8.966;2023-02-20T00:25:17;97326.75;;;5.83;98.42
58385;BME280;44185;47.844;8.966;2023-02-20T00:27:43;97326.91;;;5.79;98.54
58385;BME280;44185;47.844;8.966;2023-02-20T00:30:13;97327.91;;;5.77;98.59
58385;BME280;44185;47.844;8.966;2023-02-20T00:32:40;97332.81;;;5.65;99.32
58385;BME280;44185;47.844;8.966;2023-02-20T00:35:08;97332.81;;;5.65;99.56
58385;BME280;44185;47.844;8.966;2023-02-20T00:37:33;97336.44;;;5.63;100.00
58385;BME280;44185;47.844;8.966;2023-02-20T00:39:59;97331.34;;;5.60;100.00
58385;BME280;44185;47.844;8.966;2023-02-20T00:42:24;97333.66;;;5.66;100.00
58385;BME280;44185;47.844;8.966;2023-02-20T00:44:50;97326.78;;;5.63;100.00
58385;BME280;44185;47.844;8.966;2023-02-20T00:47:15;97331.19;;;5.63;100.00
58385;BME280;44185;47.844;8.966;2023-02-20T00:49:42;97327.28;;;5.52;100.00
58385;BME280;44185;47.844;8.966;2023-02-20T00:52:07;97334.41;;;5.50;100.00
58385;BME280;44185;47.844;8.966;2023-02-20T00:54:33;97333.53;;;5.50;100.00
58385;BME280;44185;47.844;8.966;2023-02-20T00:56:58;97332.63;;;5.51;100.00
58385;BME280;44185;47.844;8.966;2023-02-20T00:59:24;97326.22;;;5.39;100.00
58385;BME280;44185;47.844;8.966;2023-02-20T01:01:49;97324.72;;;5.33;100.00
58385;BME280;44185;47.844;8.966;2023-02-20T01:04:14;97329.34;;;5.28;100.00
58385;BME280;44185;47.844;8.966;2023-02-20T01:06:41;97330.47;;;5.22;100.00
58385;BME280;44185;47.844;8.966;2023-02-20T01:09:07;97325.84;;;5.27;100.00
58385;BME280;44185;47.844;8.966;2023-02-20T01:11:32;97325.72;;;5.30;100.00
58385;BME280;44185;47.844;8.966;2023-02-20T01:13:58;97328.47;;;5.27;100.00
58385;BME280;44185;47.844;8.966;2023-02-20T01:16:23;97327.72;;;5.25;100.00
58385;BME280;44185;47.844;8.966;2023-02-20T01:18:49;97325.09;;;5.25;100.00
58385;BME280;44185;47.844;8.966;2023-02-20T01:21:15;97319.88;;;5.23;100.00
58385;BME280;44185;47.844;8.966;2023-02-20T01:23:42;97321.81;;;5.20;100.00
58385;BME280;44185;47.844;8.966;2023-02-20T01:26:07;97325.91;;;5.26;100.00
58385;BME280;44185;47.844;8.966;2023-02-20T01:28:33;97320.03;;;5.20;100.00
58385;BME280;44185;47.844;8.966;2023-02-20T01:30:58;97323.63;;;5.18;100.00
58385;BME280;44185;47.844;8.966;2023-02-20T01:33:24;97325.34;;;5.19;100.00
58385;BME280;44185;47.844;8.966;2023-02-20T01:35:49;97328.63;;;5.24;100.00
58385;BME280;44185;47.844;8.966;2023-02-20T01:38:14;97336.50;;;5.24;100.00
58385;BME280;44185;47.844;8.966;2023-02-20T01:40:45;97334.59;;;5.28;100.00
58385;BME280;44185;47.844;8.966;2023-02-20T01:43:11;97342.19;;;5.15;100.00
58385;BME280;44185;47.844;8.966;2023-02-20T01:45:38;97341.75;;;5.24;100.00
58385;BME280;44185;47.844;8.966;2023-02-20T01:48:04;97340.03;;;5.23;100.00
58385;BME280;44185;47.844;8.966;2023-02-20T01:50:32;97342.72;;;5.21;100.00
58385;BME280;44185;47.844;8.966;2023-02-20T01:53:00;97348.06;;;5.20;100.00
58385;BME280;44185;47.844;8.966;2023-02-20T01:55:29;97345.22;;;5.05;100.00
58385;BME280;44185;47.844;8.966;2023-02-20T01:57:59;97336.91;;;4.95;100.00
58385;BME280;44185;47.844;8.966;2023-02-20T02:00:26;97338.47;;;4.99;100.00
58385;BME280;44185;47.844;8.966;2023-02-20T02:02:56;97338.41;;;5.01;100.00
58385;BME280;44185;47.844;8.966;2023-02-20T02:05:22;97325.84;;;5.08;100.00
58385;BME280;44185;47.844;8.966;2023-02-20T02:07:49;97333.09;;;5.03;100.00
58385;BME280;44185;47.844;8.966;2023-02-20T02:10:17;97329.91;;;4.96;100.00
58385;BME280;44185;47.844;8.966;2023-02-20T02:12:45;97327.47;;;4.91;100.00
58385;BME280;44185;47.844;8.966;2023-02-20T02:15:15;97323.72;;;4.97;100.00
58385;BME280;44185;47.844;8.966;2023-02-20T02:18:02;97325.78;;;4.90;100.00
58385;BME280;44185;47.844;8.966;2023-02-20T02:20:58;97319.69;;;4.89;100.00
58385;BME280;44185;47.844;8.966;2023-02-20T02:23:48;97305.84;;;4.86;100.00
58385;BME280;44185;47.844;8.966;2023-02-20T02:26:37;97313.66;;;4.87;100.00
58385;BME280;44185;47.844;8.966;2023-02-20T02:29:33;97311.03;;;4.87;100.00
58385;BME280;44185;47.844;8.966;2023-02-20T02:35:17;97316.69;;;4.78;100.00
58385;BME280;44185;47.844;8.966;2023-02-20T02:37:50;97323.97;;;4.71;100.00
58385;BME280;44185;47.844;8.966;2023-02-20T02:40:26;97318.34;;;4.60;100.00
58385;BME280;44185;47.844;8.966;2023-02-20T02:42:57;97315.38;;;4.48;100.00
58385;BME280;44185;47.844;8.966;2023-02-20T02:45:31;97317.59;;;4.37;100.00
58385;BME280;44185;47.844;8.966;2023-02-20T02:48:04;97314.00;;;4.39;100.00
58385;BME280;44185;47.844;8.966;2023-02-20T02:50:33;97312.56;;;4.32;100.00
58385;BME280;44185;47.844;8.966;2023-02-20T02:53:01;97311.13;;;4.25;100.00
58385;BME280;44185;47.844;8.966;2023-02-20T02:55:29;97304.75;;;4.09;100.00
58385;BME280;44185;47.844;8.966;2023-02-20T02:57:55;97298.34;;;3.96;100.00
58385;BME280;44185;47.844;8.966;2023-02-20T03:00:22;97302.59;;;3.98;100.00
58385;BME280;44185;47.844;8.966;2023-02-20T03:02:55;97293.84;;;3.99;100.00
58385;BME280;44185;47.844;8.966;2023-02-20T03:05:25;97293.75;;;3.80;100.00
58385;BME280;44185;47.844;8.966;2023-02-20T03:07:54;97293.94;;;3.75;100.00
58385;BME280;44185;47.844;8.966;2023-02-20T03:10:24;97287.91;;;3.73;100.00
58385;BME280;44185;47.844;8.966;2023-02-20T03:12:50;97282.72;;;3.72;100.00
58385;BME280;44185;47.844;8.966;2023-02-20T03:15:21;97288.03;;;3.70;100.00
58385;BME280;44185;47.844;8.966;2023-02-20T03:17:55;97290.63;;;3.49;100.00
58385;BME280;44185;47.844;8.966;2023-02-20T03:20:23;97287.94;;;3.28;100.00
58385;BME280;44185;47.844;8.966;2023-02-20T03:22:52;97290.41;;;2.86;100.00
58385;BME280;44185;47.844;8.966;2023-02-20T03:25:24;97288.47;;;2.92;100.00
58385;BME280;44185;47.844;8.966;2023-02-20T03:27:53;97280.94;;;3.06;100.00
58385;BME280;44185;47.844;8.966;2023-02-20T03:30:23;97285.28;;;3.07;100.00
58385;BME280;44185;47.844;8.966;2023-02-20T03:32:58;97290.78;;;2.99;100.00
58385;BME280;44185;47.844;8.966;2023-02-20T03:35:25;97289.94;;;2.99;100.00
58385;BME280;44185;47.844;8.966;2023-02-20T03:37:52;97285.41;;;3.03;100.00
58385;BME280;44185;47.844;8.966;2023-02-20T03:40:19;97282.84;;;2.78;100.00
58385;BME280;44185;47.844;8.966;2023-02-20T03:42:50;97280.75;;;2.88;100.00
58385;BME280;44185;47.844;8.966;2023-02-20T03:45:19;97269.13;;;2.96;100.00
58385;BME280;44185;47.844;8.966;2023-02-20T03:47:47;97271.84;;;2.93;100.00
58385;BME280;44185;47.844;8.966;2023-02-20T03:50:14;97273.47;;;2.97;100.00
58385;BME280;44185;47.844;8.966;2023-02-20T03:52:40;97273.78;;;2.87;100.00
58385;BME280;44185;47.844;8.966;2023-02-20T03:55:06;97276.53;;;2.84;100.00
58385;BME280;44185;47.844;8.966;2023-02-20T03:57:34;97273.47;;;2.73;100.00
58385;BME280;44185;47.844;8.966;2023-02-20T04:00:07;97276.94;;;2.73;100.00
58385;BME280;44185;47.844;8.966;2023-02-20T04:02:38;97278.13;;;2.64;100.00
58385;BME280;44185;47.844;8.966;2023-02-20T04:05:09;97279.59;;;2.48;100.00
58385;BME280;44185;47.844;8.966;2023-02-20T04:07:42;97280.47;;;2.48;100.00
58385;BME280;44185;47.844;8.966;2023-02-20T04:10:13;97274.94;;;2.56;100.00
58385;BME280;44185;47.844;8.966;2023-02-20T04:12:42;97282.28;;;2.46;100.00
58385;BME280;44185;47.844;8.966;2023-02-20T04:15:10;97280.84;;;2.37;100.00
58385;BME280;44185;47.844;8.966;2023-02-20T04:17:45;97276.94;;;2.24;100.00
58385;BME280;44185;47.844;8.966;2023-02-20T04:20:12;97287.78;;;2.13;100.00
58385;BME280;44185;47.844;8.966;2023-02-20T04:22:41;97285.16;;;2.13;100.00
58385;BME280;44185;47.844;8.966;2023-02-20T04:25:12;97284.09;;;2.18;100.00
58385;BME280;44185;47.844;8.966;2023-02-20T04:27:40;97286.72;;;2.18;100.00
58385;BME280;44185;47.844;8.966;2023-02-20T04:30:06;97280.63;;;2.18;100.00
58385;BME280;44185;47.844;8.966;2023-02-20T04:32:34;97279.84;;;2.16;100.00
58385;BME280;44185;47.844;8.966;2023-02-20T04:34:59;97278.16;;;2.15;100.00
58385;BME280;44185;47.844;8.966;2023-02-20T04:37:24;97285.50;;;2.03;100.00
58385;BME280;44185;47.844;8.966;2023-02-20T04:39:50;97283.56;;;2.08;100.00
58385;BME280;44185;47.844;8.966;2023-02-20T04:42:15;97283.25;;;1.92;100.00
58385;BME280;44185;47.844;8.966;2023-02-20T04:44:41;97275.84;;;1.80;100.00
58385;BME280;44185;47.844;8.966;2023-02-20T04:47:10;97278.44;;;1.80;100.00
58385;BME280;44185;47.844;8.966;2023-02-20T04:49:38;97276.63;;;1.82;100.00
58385;BME280;44185;47.844;8.966;2023-02-20T04:52:03;97279.94;;;1.60;100.00
58385;BME280;44185;47.844;8.966;2023-02-20T04:54:29;97281.75;;;1.58;100.00
58385;BME280;44185;47.844;8.966;2023-02-20T04:56:54;97289.91;;;1.48;100.00
58385;BME280;44185;47.844;8.966;2023-02-20T04:59:20;97289.22;;;1.41;100.00
58385;BME280;44185;47.844;8.966;2023-02-20T05:01:46;97287.72;;;1.34;100.00
58385;BME280;44185;47.844;8.966;2023-02-20T05:04:11;97288.34;;;1.14;100.00
58385;BME280;44185;47.844;8.966;2023-02-20T05:06:41;97276.31;;;1.09;100.00
58385;BME280;44185;47.844;8.966;2023-02-20T05:09:06;97282.03;;;1.21;100.00
58385;BME280;44185;47.844;8.966;2023-02-20T05:11:32;97289.47;;;1.05;100.00
58385;BME280;44185;47.844;8.966;2023-02-20T05:13:57;97298.88;;;0.80;100.00
58385;BME280;44185;47.844;8.966;2023-02-20T05:16:23;97285.97;;;0.77;100.00
58385;BME280;44185;47.844;8.966;2023-02-20T05:18:48;97283.38;;;0.77;100.00
58385;BME280;44185;47.844;8.966;2023-02-20T05:21:14;97290.34;;;0.75;100.00
58385;BME280;44185;47.844;8.966;2023-02-20T05:23:41;97290.78;;;0.61;100.00
58385;BME280;44185;47.844;8.966;2023-02-20T05:26:08;97282.41;;;0.80;100.00
58385;BME280;44185;47.844;8.966;2023-02-20T05:28:33;97270.75;;;0.92;100.00
58385;BME280;44185;47.844;8.966;2023-02-20T05:30:59;97277.63;;;0.94;100.00
58385;BME280;44185;47.844;8.966;2023-02-20T05:33:24;97275.97;;;0.92;100.00
58385;BME280;44185;47.844;8.966;2023-02-20T05:35:49;97269.97;;;0.90;100.00
58385;BME280;44185;47.844;8.966;2023-02-20T05:38:16;97269.03;;;0.91;100.00
58385;BME280;44185;47.844;8.966;2023-02-20T05:40:42;97274.16;;;0.94;100.00
58385;BME280;44185;47.844;8.966;2023-02-20T05:43:08;97270.59;;;0.98;100.00
58385;BME280;44185;47.844;8.966;2023-02-20T05:45:33;97268.56;;;0.77;100.00
58385;BME280;44185;47.844;8.966;2023-02-20T05:47:59;97263.06;;;0.58;100.00
58385;BME280;44185;47.844;8.966;2023-02-20T05:50:24;97269.88;;;0.62;100.00
58385;BME280;44185;47.844;8.966;2023-02-20T05:52:50;97271.75;;;0.57;100.00
58385;BME280;44185;47.844;8.966;2023-02-20T05:55:15;97268.06;;;0.64;100.00
58385;BME280;44185;47.844;8.966;2023-02-20T05:57:42;97271.66;;;0.60;100.00
58385;BME280;44185;47.844;8.966;2023-02-20T06:00:09;97266.00;;;0.46;100.00
58385;BME280;44185;47.844;8.966;2023-02-20T06:02:34;97267.72;;;0.47;100.00
58385;BME280;44185;47.844;8.966;2023-02-20T06:05:00;97272.13;;;0.43;100.00
58385;BME280;44185;47.844;8.966;2023-02-20T06:07:25;97271.25;;;0.44;100.00
58385;BME280;44185;47.844;8.966;2023-02-20T06:09:51;97269.22;;;0.54;100.00
58385;BME280;44185;47.844;8.966;2023-02-20T06:12:16;97261.47;;;0.52;100.00
58385;BME280;44185;47.844;8.966;2023-02-20T06:14:43;97256.50;;;0.43;100.00
58385;BME280;44185;47.844;8.966;2023-02-20T06:17:09;97254.03;;;0.38;100.00
58385;BME280;44185;47.844;8.966;2023-02-20T06:19:34;97247.59;;;0.52;100.00
58385;BME280;44185;47.844;8.966;2023-02-20T06:21:59;97249.47;;;0.47;100.00
58385;BME280;44185;47.844;8.966;2023-02-20T06:24:25;97257.22;;;0.48;100.00
58385;BME280;44185;47.844;8.966;2023-02-20T06:26:50;97259.63;;;0.56;100.00
58385;BME280;44185;47.844;8.966;2023-02-20T06:29:16;97261.28;;;0.59;100.00
58385;BME280;44185;47.844;8.966;2023-02-20T06:31:43;97267.72;;;0.47;100.00
58385;BME280;44185;47.844;8.966;2023-02-20T06:34:09;97270.09;;;0.54;100.00
58385;BME280;44185;47.844;8.966;2023-02-20T06:36:36;97281.53;;;0.49;100.00
58385;BME280;44185;47.844;8.966;2023-02-20T06:39:02;97286.31;;;0.32;100.00
58385;BME280;44185;47.844;8.966;2023-02-20T06:41:28;97273.72;;;0.17;100.00
58385;BME280;44185;47.844;8.966;2023-02-20T06:43:53;97289.56;;;0.09;100.00
58385;BME280;44185;47.844;8.966;2023-02-20T06:46:19;97291.41;;;0.05;100.00
58385;BME280;44185;47.844;8.966;2023-02-20T06:48:47;97286.53;;;0.25;100.00
58385;BME280;44185;47.844;8.966;2023-02-20T06:51:15;97284.56;;;0.33;100.00
58385;BME280;44185;47.844;8.966;2023-02-20T06:53:40;97280.31;;;0.30;100.00
58385;BME280;44185;47.844;8.966;2023-02-20T06:56:06;97280.16;;;0.37;100.00
58385;BME280;44185;47.844;8.966;2023-02-20T06:58:32;97280.22;;;0.33;100.00
58385;BME280;44185;47.844;8.966;2023-02-20T07:00:57;97282.78;;;0.35;100.00
58385;BME280;44185;47.844;8.966;2023-02-20T07:03:23;97280.22;;;0.33;100.00
58385;BME280;44185;47.844;8.966;2023-02-20T07:05:50;97275.66;;;0.42;100.00
58385;BME280;44185;47.844;8.966;2023-02-20T07:08:15;97284.22;;;0.46;100.00
58385;BME280;44185;47.844;8.966;2023-02-20T07:10:41;97280.72;;;0.47;100.00
58385;BME280;44185;47.844;8.966;2023-02-20T07:13:06;97283.91;;;0.58;100.00
58385;BME280;44185;47.844;8.966;2023-02-20T07:15:31;97286.66;;;0.52;100.00
58385;BME280;44185;47.844;8.966;2023-02-20T07:17:57;97279.72;;;0.52;100.00
58385;BME280;44185;47.844;8.966;2023-02-20T07:20:23;97273.38;;;0.61;100.00
58385;BME280;44185;47.844;8.966;2023-02-20T07:22:50;97273.06;;;0.72;100.00
58385;BME280;44185;47.844;8.966;2023-02-20T07:25:16;97271.72;;;0.89;100.00
58385;BME280;44185;47.844;8.966;2023-02-20T07:27:41;97278.34;;;0.99;100.00
58385;BME280;44185;47.844;8.966;2023-02-20T07:30:07;97270.22;;;1.09;100.00
58385;BME280;44185;47.844;8.966;2023-02-20T07:32:33;97272.81;;;1.10;100.00
58385;BME280;44185;47.844;8.966;2023-02-20T07:34:58;97273.59;;;1.13;100.00
58385;BME280;44185;47.844;8.966;2023-02-20T07:37:26;97269.19;;;1.15;100.00
58385;BME280;44185;47.844;8.966;2023-02-20T07:39:52;97281.97;;;1.24;100.00
58385;BME280;44185;47.844;8.966;2023-02-20T07:42:18;97284.25;;;1.33;100.00
58385;BME280;44185;47.844;8.966;2023-02-20T07:44:43;97282.97;;;1.47;100.00
58385;BME280;44185;47.844;8.966;2023-02-20T07:47:09;97281.63;;;1.35;100.00
58385;BME280;44185;47.844;8.966;2023-02-20T07:49:34;97274.63;;;1.36;100.00
58385;BME280;44185;47.844;8.966;2023-02-20T07:52:00;97275.81;;;1.54;100.00
58385;BME280;44185;47.844;8.966;2023-02-20T07:54:25;97273.41;;;1.75;100.00
58385;BME280;44185;47.844;8.966;2023-02-20T07:56:53;97273.31;;;1.76;100.00
58385;BME280;44185;47.844;8.966;2023-02-20T07:59:18;97271.59;;;1.77;100.00
58385;BME280;44185;47.844;8.966;2023-02-20T08:01:44;97275.63;;;1.86;100.00
58385;BME280;44185;47.844;8.966;2023-02-20T08:04:09;97271.00;;;1.94;100.00
58385;BME280;44185;47.844;8.966;2023-02-20T08:06:35;97275.38;;;1.94;100.00
58385;BME280;44185;47.844;8.966;2023-02-20T08:09:00;97274.16;;;2.04;100.00
58385;BME280;44185;47.844;8.966;2023-02-20T08:11:26;97285.03;;;2.17;100.00
58385;BME280;44185;47.844;8.966;2023-02-20T08:13:52;97287.13;;;2.31;100.00
58385;BME280;44185;47.844;8.966;2023-02-20T08:16:18;97284.13;;;2.42;100.00
58385;BME280;44185;47.844;8.966;2023-02-20T08:18:44;97282.91;;;2.53;100.00
58385;BME280;44185;47.844;8.966;2023-02-20T08:21:09;97290.25;;;2.67;100.00
58385;BME280;44185;47.844;8.966;2023-02-20T08:23:34;97284.84;;;2.72;100.00
58385;BME280;44185;47.844;8.966;2023-02-20T08:26:02;97280.09;;;2.82;100.00
58385;BME280;44185;47.844;8.966;2023-02-20T08:28:28;97281.41;;;2.94;100.00
58385;BME280;44185;47.844;8.966;2023-02-20T08:30:55;97276.69;;;3.04;100.00
58385;BME280;44185;47.844;8.966;2023-02-20T08:33:20;97268.31;;;3.18;100.00
58385;BME280;44185;47.844;8.966;2023-02-20T08:35:45;97269.69;;;3.27;100.00
58385;BME280;44185;47.844;8.966;2023-02-20T08:38:23;97272.00;;;3.34;100.00
58385;BME280;44185;47.844;8.966;2023-02-20T08:40:49;97269.88;;;3.44;100.00
58385;BME280;44185;47.844;8.966;2023-02-20T08:43:14;97263.41;;;3.53;100.00
58385;BME280;44185;47.844;8.966;2023-02-20T08:45:40;97264.59;;;3.67;100.00
58385;BME280;44185;47.844;8.966;2023-02-20T08:48:06;97261.34;;;3.83;100.00
58385;BME280;44185;47.844;8.966;2023-02-20T08:50:32;97251.19;;;3.96;100.00
58385;BME280;44185;47.844;8.966;2023-02-20T08:52:57;97255.97;;;4.07;100.00
58385;BME280;44185;47.844;8.966;2023-02-20T08:55:23;97257.88;;;4.24;100.00
58385;BME280;44185;47.844;8.966;2023-02-20T08:57:48;97249.69;;;4.32;100.00
58385;BME280;44185;47.844;8.966;2023-02-20T09:00:14;97248.69;;;4.34;100.00
58385;BME280;44185;47.844;8.966;2023-02-20T09:02:40;97233.53;;;4.41;100.00
58385;BME280;44185;47.844;8.966;2023-02-20T09:05:07;97231.63;;;4.45;100.00
58385;BME280;44185;47.844;8.966;2023-02-20T09:07:33;97233.13;;;4.51;100.00
58385;BME280;44185;47.844;8.966;2023-02-20T09:09:58;97237.16;;;4.58;100.00
58385;BME280;44185;47.844;8.966;2023-02-20T09:12:24;97236.59;;;4.71;100.00
58385;BME280;44185;47.844;8.966;2023-02-20T09:14:49;97227.72;;;4.93;100.00
58385;BME280;44185;47.844;8.966;2023-02-20T09:17:15;97233.53;;;4.99;100.00
58385;BME280;44185;47.844;8.966;2023-02-20T09:19:41;97226.47;;;5.02;100.00
58385;BME280;44185;47.844;8.966;2023-02-20T09:22:08;97237.50;;;5.08;100.00
58385;BME280;44185;47.844;8.966;2023-02-20T09:24:33;97233.78;;;5.12;100.00
58385;BME280;44185;47.844;8.966;2023-02-20T09:26:59;97235.41;;;5.15;100.00
58385;BME280;44185;47.844;8.966;2023-02-20T09:29:24;97227.88;;;5.27;100.00
58385;BME280;44185;47.844;8.966;2023-02-20T09:31:50;97219.50;;;5.38;100.00
58385;BME280;44185;47.844;8.966;2023-02-20T09:34:15;97225.75;;;5.53;100.00
58385;BME280;44185;47.844;8.966;2023-02-20T09:36:40;97225.31;;;5.62;100.00
58385;BME280;44185;47.844;8.966;2023-02-20T09:39:07;97223.06;;;5.72;100.00
58385;BME280;44185;47.844;8.966;2023-02-20T09:41:41;97214.56;;;5.85;100.00
58385;BME280;44185;47.844;8.966;2023-02-20T09:44:12;97209.38;;;6.01;100.00
58385;BME280;44185;47.844;8.966;2023-02-20T09:46:42;97217.69;;;6.27;100.00
58385;BME280;44185;47.844;8.966;2023-02-20T09:49:11;97209.56;;;6.32;100.00
58385;BME280;44185;47.844;8.966;2023-02-20T09:51:40;97213.91;;;6.33;100.00
58385;BME280;44185;47.844;8.966;2023-02-20T09:54:11;97211.88;;;6.38;100.00
58385;BME280;44185;47.844;8.966;2023-02-20T09:56:40;97203.72;;;6.43;100.00
58385;BME280;44185;47.844;8.966;2023-02-20T09:59:09;97209.63;;;6.64;100.00
58385;BME280;44185;47.844;8.966;2023-02-20T10:01:38;97206.81;;;6.67;100.00
58385;BME280;44185;47.844;8.966;2023-02-20T10:04:09;97209.34;;;6.69;100.00
58385;BME280;44185;47.844;8.966;2023-02-20T10:06:36;97201.41;;;6.71;100.00
58385;BME280;44185;47.844;8.966;2023-02-20T10:09:02;97197.66;;;6.75;100.00
58385;BME280;44185;47.844;8.966;2023-02-20T10:11:45;97197.31;;;6.97;100.00
58385;BME280;44185;47.844;8.966;2023-02-20T10:14:36;97188.72;;;7.10;100.00
58385;BME280;44185;47.844;8.966;2023-02-20T10:17:12;97196.75;;;7.39;100.00
58385;BME280;44185;47.844;8.966;2023-02-20T10:19:49;97198.78;;;7.50;98.94
58385;BME280;44185;47.844;8.966;2023-02-20T10:22:19;97197.69;;;7.69;94.94
58385;BME280;44185;47.844;8.966;2023-02-20T10:24:55;97195.81;;;7.86;95.23
58385;BME280;44185;47.844;8.966;2023-02-20T10:27:34;97208.75;;;7.90;91.75
58385;BME280;44185;47.844;8.966;2023-02-20T10:30:05;97200.56;;;8.10;90.65
58385;BME280;44185;47.844;8.966;2023-02-20T10:32:39;97192.69;;;8.25;90.75
58385;BME280;44185;47.844;8.966;2023-02-20T10:35:08;97194.81;;;8.47;90.09
58385;BME280;44185;47.844;8.966;2023-02-20T10:37:38;97196.81;;;8.58;88.42
58385;BME280;44185;47.844;8.966;2023-02-20T10:40:12;97189.00;;;8.71;87.02
58385;BME280;44185;47.844;8.966;2023-02-20T10:42:47;97188.69;;;8.90;86.77
58385;BME280;44185;47.844;8.966;2023-02-20T10:45:22;97188.72;;;9.04;85.10
58385;BME280;44185;47.844;8.966;2023-02-20T10:47:56;97176.34;;;9.32;84.87
58385;BME280;44185;47.844;8.966;2023-02-20T10:50:30;97175.97;;;9.38;83.19
58385;BME280;44185;47.844;8.966;2023-02-20T10:53:00;97177.91;;;9.49;83.56
58385;BME280;44185;47.844;8.966;2023-02-20T10:55:34;97176.72;;;9.53;79.77
58385;BME280;44185;47.844;8.966;2023-02-20T10:58:07;97171.44;;;9.53;80.71
58385;BME280;44185;47.844;8.966;2023-02-20T11:00:39;97169.28;;;9.86;79.97
58385;BME280;44185;47.844;8.966;2023-02-20T11:03:10;97163.06;;;10.00;80.43
58385;BME280;44185;47.844;8.966;2023-02-20T11:05:44;97157.75;;;10.14;78.80
58385;BME280;44185;47.844;8.966;2023-02-20T11:08:10;97150.22;;;10.20;78.91
58385;BME280;44185;47.844;8.966;2023-02-20T11:10:35;97150.03;;;10.23;77.61
58385;BME280;44185;47.844;8.966;2023-02-20T11:13:01;97144.03;;;10.46;78.10
58385;BME280;44185;47.844;8.966;2023-02-20T11:15:31;97149.66;;;10.41;76.87
58385;BME280;44185;47.844;8.966;2023-02-20T11:17:58;97139.94;;;10.55;76.92
58385;BME280;44185;47.844;8.966;2023-02-20T11:20:39;97147.97;;;10.66;75.25
58385;BME280;44185;47.844;8.966;2023-02-20T11:23:05;97134.94;;;10.63;73.70
58385;BME280;44185;47.844;8.966;2023-02-20T11:25:32;97132.00;;;10.42;74.42
58385;BME280;44185;47.844;8.966;2023-02-20T11:28:07;97130.09;;;10.57;74.80
58385;BME280;44185;47.844;8.966;2023-02-20T11:30:37;97130.47;;;10.77;74.89
58385;BME280;44185;47.844;8.966;2023-02-20T11:33:03;97129.38;;;10.79;74.83
58385;BME280;44185;47.844;8.966;2023-02-20T11:35:33;97124.59;;;11.09;74.21
58385;BME280;44185;47.844;8.966;2023-02-20T11:41:20;97118.13;;;10.89;74.42
58385;BME280;44185;47.844;8.966;2023-02-20T11:43:47;97107.88;;;11.09;73.35
58385;BME280;44185;47.844;8.966;2023-02-20T11:46:16;97104.28;;;11.21;74.36
58385;BME280;44185;47.844;8.966;2023-02-20T11:49:01;97103.06;;;11.14;72.88
58385;BME280;44185;47.844;8.966;2023-02-20T11:51:32;97091.75;;;11.12;71.41
58385;BME280;44185;47.844;8.966;2023-02-20T11:54:06;97090.13;;;10.98;72.38
58385;BME280;44185;47.844;8.966;2023-02-20T11:56:31;97084.59;;;11.37;73.93
58385;BME280;44185;47.844;8.966;2023-02-20T11:59:16;97077.13;;;11.42;69.95
58385;BME280;44185;47.844;8.966;2023-02-20T12:01:50;97069.22;;;11.54;67.97
58385;BME280;44185;47.844;8.966;2023-02-20T12:04:18;97062.97;;;11.66;71.79
58385;BME280;44185;47.844;8.966;2023-02-20T12:06:44;97063.69;;;11.80;70.00
58385;BME280;44185;47.844;8.966;2023-02-20T12:09:12;97051.75;;;11.97;70.31
58385;BME280;44185;47.844;8.966;2023-02-20T12:11:39;97052.84;;;11.95;68.24
58385;BME280;44185;47.844;8.966;2023-02-20T12:14:08;97045.25;;;12.36;68.97
58385;BME280;44185;47.844;8.966;2023-02-20T12:16:49;97044.00;;;12.52;67.93
58385;BME280;44185;47.844;8.966;2023-02-20T12:19:23;97039.97;;;12.69;67.88
58385;BME280;44185;47.844;8.966;2023-02-20T12:22:00;97031.78;;;12.61;66.93
58385;BME280;44185;47.844;8.966;2023-02-20T12:24:53;97028.38;;;12.70;65.57
58385;BME280;44185;47.844;8.966;2023-02-20T12:27:33;97027.69;;;12.56;67.60
58385;BME280;44185;47.844;8.966;2023-02-20T12:30:19;97025.19;;;12.43;64.88
58385;BME280;44185;47.844;8.966;2023-02-20T12:32:58;97025.75;;;12.59;67.54
58385;BME280;44185;47.844;8.966;2023-02-20T12:35:31;97014.69;;;12.86;66.10
58385;BME280;44185;47.844;8.966;2023-02-20T12:38:18;97008.25;;;12.89;67.01
58385;BME280;44185;47.844;8.966;2023-02-20T12:41:05;96999.50;;;12.98;64.54
58385;BME280;44185;47.844;8.966;2023-02-20T12:43:38;96993.03;;;13.34;64.14
58385;BME280;44185;47.844;8.966;2023-02-20T12:46:15;96984.19;;;13.55;64.20
58385;BME280;44185;47.844;8.966;2023-02-20T12:48:51;96983.06;;;13.79;62.31
58385;BME280;44185;47.844;8.966;2023-02-20T12:51:30;96973.56;;;13.55;61.57
58385;BME280;44185;47.844;8.966;2023-02-20T12:54:11;96980.41;;;13.05;60.96
58385;BME280;44185;47.844;8.966;2023-02-20T12:56:51;96975.25;;;13.03;62.04
58385;BME280;44185;47.844;8.966;2023-02-20T12:59:26;96985.09;;;13.44;63.93
58385;BME280;44185;47.844;8.966;2023-02-20T13:01:53;96982.59;;;13.64;61.71
58385;BME280;44185;47.844;8.966;2023-02-20T13:04:24;96971.88;;;13.85;61.95
58385;BME280;44185;47.844;8.966;2023-02-20T13:06:59;96968.56;;;13.93;61.06
58385;BME280;44185;47.844;8.966;2023-02-20T13:09:31;96968.00;;;13.99;61.61
58385;BME280;44185;47.844;8.966;2023-02-20T13:12:02;96966.03;;;14.01;60.36
58385;BME280;44185;47.844;8.966;2023-02-20T13:14:37;96962.88;;;13.66;59.87
58385;BME280;44185;47.844;8.966;2023-02-20T13:17:16;96958.09;;;14.11;62.01